Aviation Digital Data Service (ADDS)

Output produced by TAFs form (0743 UTC 28 February 2017)
found at http://aviationweather.gov/adds/tafs/
 
KTEX 280537Z 2806/0106 14003KT 1SM -SN BKN008 OVC017 
     TEMPO 2806/2810 1/4SM +SN FZFG VV001 
     FM281000 23008KT 1SM -SHSN BR OVC015 
     FM281600 25009KT 3SM -SHSN BR OVC025 
     FM010000 28011G21KT 5SM BR BKN035 
     FM010100 32010G18KT P6SM BKN045